TimeMDT,TemperatureF,Dew PointF,Humidity,Sea Level PressureIn,VisibilityMPH,Wind Direction,Wind SpeedMPH,Gust SpeedMPH,PrecipitationIn,Events,Conditions,WindDirDegrees,DateUTC
12:15 AM,61.5,45.3,55,30.18,10.0,ESE,6.9,-,N/A,,Scattered Clouds,120,2013-07-03 06:15:00
12:35 AM,59.7,45.5,59,30.16,10.0,East,6.9,-,N/A,,Scattered Clouds,100,2013-07-03 06:35:00
12:55 AM,59.7,45.7,60,30.16,10.0,ESE,8.1,-,N/A,,Clear,120,2013-07-03 06:55:00
1:15 AM,60.3,45.1,57,30.15,10.0,SE,6.9,-,N/A,,Clear,130,2013-07-03 07:15:00
1:35 AM,60.1,44.8,57,30.15,10.0,ESE,5.8,-,N/A,,Clear,120,2013-07-03 07:35:00
1:55 AM,56.7,45.3,66,30.14,10.0,ENE,4.6,-,N/A,,Clear,60,2013-07-03 07:55:00
2:15 AM,56.7,45.9,67,30.14,10.0,East,3.5,-,N/A,,Clear,90,2013-07-03 08:15:00
2:35 AM,57.2,45.0,64,30.13,10.0,Calm,Calm,-,N/A,,Clear,0,2013-07-03 08:35:00
2:55 AM,55.4,44.8,67,30.12,10.0,Calm,Calm,-,N/A,,Clear,0,2013-07-03 08:55:00
3:15 AM,58.1,43.2,58,30.11,10.0,Calm,Calm,-,N/A,,Clear,0,2013-07-03 09:15:00
3:35 AM,55.9,43.5,63,30.11,10.0,East,3.5,-,N/A,,Clear,100,2013-07-03 09:35:00
3:55 AM,56.7,43.0,60,30.11,10.0,SE,4.6,-,N/A,,Clear,140,2013-07-03 09:55:00
4:15 AM,57.2,42.3,57,30.10,10.0,SE,6.9,-,N/A,,Clear,140,2013-07-03 10:15:00
4:35 AM,55.8,42.8,62,30.11,10.0,SE,9.2,-,N/A,,Clear,130,2013-07-03 10:35:00
4:55 AM,55.9,42.8,61,30.10,10.0,SE,5.8,-,N/A,,Clear,140,2013-07-03 10:55:00
5:15 AM,54.9,43.0,64,30.11,10.0,SSE,4.6,-,N/A,,Clear,150,2013-07-03 11:15:00
5:35 AM,53.8,43.3,68,30.11,10.0,SE,4.6,-,N/A,,Clear,140,2013-07-03 11:35:00
5:55 AM,54.3,43.3,66,30.11,10.0,SSE,4.6,-,N/A,,Clear,150,2013-07-03 11:55:00
6:15 AM,54.3,43.9,68,30.10,10.0,SE,4.6,-,N/A,,Clear,140,2013-07-03 12:15:00
6:35 AM,55.9,44.4,65,30.10,10.0,SE,4.6,-,N/A,,Clear,140,2013-07-03 12:35:00
6:55 AM,57.6,45.0,63,30.10,10.0,SSE,3.5,-,N/A,,Clear,150,2013-07-03 12:55:00
7:15 AM,59.0,45.5,61,30.10,10.0,Calm,Calm,-,N/A,,Clear,0,2013-07-03 13:15:00
7:35 AM,60.6,46.0,59,30.11,10.0,Calm,Calm,-,N/A,,Clear,0,2013-07-03 13:35:00
7:55 AM,63.0,46.4,55,30.11,10.0,SSW,4.6,-,N/A,,Clear,200,2013-07-03 13:55:00
8:15 AM,64.0,47.1,54,30.10,10.0,Calm,Calm,-,N/A,,Clear,0,2013-07-03 14:15:00
8:35 AM,66.2,46.9,50,30.10,10.0,SSW,3.5,-,N/A,,Clear,210,2013-07-03 14:35:00
8:55 AM,68.7,47.5,47,30.10,10.0,Calm,Calm,-,N/A,,Clear,0,2013-07-03 14:55:00
9:15 AM,70.7,47.3,43,30.10,10.0,SW,3.5,-,N/A,,Clear,230,2013-07-03 15:15:00
9:35 AM,72.5,48.0,42,30.09,10.0,SSE,3.5,-,N/A,,Clear,150,2013-07-03 15:35:00
9:55 AM,74.5,48.9,40,30.09,10.0,SE,4.6,-,N/A,,Clear,130,2013-07-03 15:55:00
10:15 AM,75.6,48.6,38,30.09,10.0,South,3.5,-,N/A,,Clear,170,2013-07-03 16:15:00
10:35 AM,76.6,48.7,37,30.08,10.0,South,3.5,-,N/A,,Clear,180,2013-07-03 16:35:00
10:55 AM,79.0,47.8,33,30.07,10.0,SSE,6.9,-,N/A,,Clear,160,2013-07-03 16:55:00
11:15 AM,80.1,46.6,31,30.07,10.0,South,6.9,-,N/A,,Clear,170,2013-07-03 17:15:00
11:35 AM,81.3,46.6,29,30.06,10.0,SSE,9.2,-,N/A,,Clear,150,2013-07-03 17:35:00
11:55 AM,82.4,45.1,27,30.05,10.0,SSE,9.2,-,N/A,,Clear,150,2013-07-03 17:55:00
12:15 PM,-9999,-9999,N/A,30.05,10.0,SE,6.9,-,N/A,,Clear,140,2013-07-03 18:15:00
12:35 PM,-9999,-9999,N/A,30.04,10.0,SE,6.9,-,N/A,,Clear,130,2013-07-03 18:35:00
12:55 PM,-9999,-9999,N/A,30.04,10.0,SSE,8.1,-,N/A,,Clear,160,2013-07-03 18:55:00
1:15 PM,-9999,-9999,N/A,30.03,10.0,ENE,4.6,-,N/A,,Clear,70,2013-07-03 19:15:00
1:35 PM,-9999,-9999,N/A,30.02,10.0,ENE,6.9,-,N/A,,Clear,60,2013-07-03 19:35:00
1:55 PM,-9999,-9999,N/A,30.01,10.0,Calm,Calm,-,N/A,,Clear,0,2013-07-03 19:55:00
2:15 PM,-9999,-9999,N/A,30.01,10.0,SE,6.9,-,N/A,,Clear,130,2013-07-03 20:15:00
2:35 PM,-9999,-9999,N/A,30.00,10.0,SE,10.4,16.1,N/A,,Clear,130,2013-07-03 20:35:00
2:55 PM,-9999,-9999,N/A,30.00,10.0,ENE,9.2,-,N/A,,Clear,60,2013-07-03 20:55:00
3:15 PM,-9999,-9999,N/A,29.99,10.0,SE,11.5,17.3,N/A,,Clear,130,2013-07-03 21:15:00
3:35 PM,-9999,-9999,N/A,29.98,10.0,East,9.2,-,N/A,,Clear,100,2013-07-03 21:35:00
3:55 PM,-9999,-9999,N/A,29.97,10.0,ESE,6.9,-,N/A,,Clear,120,2013-07-03 21:55:00
4:15 PM,-9999,-9999,N/A,29.96,10.0,East,10.4,16.1,N/A,,Clear,80,2013-07-03 22:15:00
4:35 PM,-9999,-9999,N/A,29.95,10.0,ESE,11.5,18.4,N/A,,Clear,110,2013-07-03 22:35:00
4:55 PM,-9999,-9999,N/A,29.95,10.0,ESE,10.4,-,N/A,,Clear,120,2013-07-03 22:55:00
5:15 PM,-9999,-9999,N/A,29.94,10.0,SE,10.4,-,N/A,,Clear,140,2013-07-03 23:15:00
5:35 PM,-9999,-9999,N/A,29.93,10.0,ESE,6.9,18.4,N/A,,Clear,110,2013-07-03 23:35:00
5:55 PM,-9999,-9999,N/A,29.93,10.0,SE,8.1,-,N/A,,Clear,130,2013-07-03 23:55:00
6:15 PM,-9999,-9999,N/A,29.93,10.0,East,10.4,-,N/A,,Clear,100,2013-07-04 00:15:00
6:35 PM,-9999,-9999,N/A,29.94,10.0,East,8.1,-,N/A,,Clear,90,2013-07-04 00:35:00
6:55 PM,-9999,-9999,N/A,29.94,10.0,East,8.1,-,N/A,,Clear,100,2013-07-04 00:55:00
7:15 PM,-9999,-9999,N/A,29.95,10.0,East,4.6,-,N/A,,Clear,90,2013-07-04 01:15:00
7:35 PM,-9999,-9999,N/A,29.95,10.0,East,4.6,-,N/A,,Clear,80,2013-07-04 01:35:00
7:55 PM,79.2,38.7,23,29.95,10.0,East,3.5,-,N/A,,Clear,100,2013-07-04 01:55:00
8:15 PM,75.9,37.6,25,29.95,10.0,ESE,6.9,-,N/A,,Clear,120,2013-07-04 02:15:00
8:35 PM,75.0,41.5,30,29.96,10.0,ESE,4.6,-,N/A,,Clear,120,2013-07-04 02:35:00
8:55 PM,75.2,42.1,30,29.96,10.0,North,-9999.0,-,N/A,,Clear,0,2013-07-04 02:55:00
9:15 PM,72.7,43.2,35,29.96,10.0,ESE,8.1,-,N/A,,Clear,120,2013-07-04 03:15:00
9:35 PM,71.2,43.9,37,29.97,10.0,ESE,8.1,-,N/A,,Clear,110,2013-07-04 03:35:00
9:55 PM,68.2,44.8,43,29.97,10.0,East,9.2,-,N/A,,Clear,100,2013-07-04 03:55:00
10:15 PM,70.5,43.9,38,29.98,10.0,ESE,9.2,-,N/A,,Clear,120,2013-07-04 04:15:00
10:35 PM,67.8,44.8,43,29.98,10.0,ESE,4.6,-,N/A,,Clear,120,2013-07-04 04:35:00
10:55 PM,68.4,44.8,43,29.98,10.0,SE,5.8,-,N/A,,Clear,140,2013-07-04 04:55:00
11:15 PM,67.1,44.6,44,29.98,10.0,SSE,5.8,-,N/A,,Clear,150,2013-07-04 05:15:00
11:35 PM,67.3,44.1,43,29.98,10.0,SE,6.9,-,N/A,,Clear,130,2013-07-04 05:35:00
11:55 PM,68.0,44.1,42,29.98,10.0,SE,9.2,-,N/A,,Clear,130,2013-07-04 05:55:00